createdAt,value
2023-03-26T00:02:58.664Z,11.25
2023-03-26T00:07:01.887Z,11.35
2023-03-26T00:11:08.558Z,11.46
2023-03-26T00:15:12.499Z,11.56
2023-03-26T00:19:17.111Z,11.68
2023-03-26T00:23:20.027Z,11.69
2023-03-26T00:27:25.972Z,11.80
2023-03-26T00:31:31.784Z,11.81
2023-03-26T00:35:38.593Z,11.83
2023-03-26T00:39:42.833Z,11.82
2023-03-26T00:43:48.947Z,11.82
2023-03-26T00:47:52.083Z,11.78
2023-03-26T00:51:55.472Z,11.78
2023-03-26T00:56:00.664Z,11.81
2023-03-26T01:00:17.029Z,11.80
2023-03-26T01:04:31.238Z,11.81
2023-03-26T01:08:39.080Z,11.83
2023-03-26T01:12:42.027Z,11.83
2023-03-26T01:16:52.559Z,11.81
2023-03-26T01:21:05.170Z,11.88
2023-03-26T01:25:10.414Z,11.88
2023-03-26T01:29:20.767Z,11.83
2023-03-26T01:33:34.218Z,11.91
2023-03-26T01:37:43.760Z,11.92
2023-03-26T01:41:50.927Z,11.94
2023-03-26T01:45:55.126Z,11.91
2023-03-26T01:49:58.630Z,11.91
2023-03-26T01:54:03.112Z,11.89
2023-03-26T01:58:14.198Z,11.90
2023-03-26T02:02:28.493Z,11.91
2023-03-26T02:06:38.674Z,11.95
2023-03-26T02:10:44.310Z,11.98
2023-03-26T02:14:49.416Z,12.07
2023-03-26T02:18:55.766Z,12.12
2023-03-26T02:23:00.512Z,12.13
2023-03-26T02:27:03.519Z,12.14
2023-03-26T02:31:10.057Z,12.18
2023-03-26T02:35:13.979Z,12.18
2023-03-26T02:39:17.312Z,12.20
2023-03-26T02:43:20.287Z,12.18
2023-03-26T02:47:24.926Z,12.21
2023-03-26T02:51:28.898Z,12.23
2023-03-26T02:55:32.386Z,12.19
2023-03-26T02:59:35.332Z,12.26
2023-03-26T03:03:40.032Z,12.33
2023-03-26T03:07:42.946Z,12.38
2023-03-26T03:11:46.402Z,12.44
2023-03-26T03:15:49.327Z,12.48
2023-03-26T03:19:54.076Z,12.50
2023-03-26T03:24:00.302Z,12.49
2023-03-26T03:28:04.270Z,12.40
2023-03-26T03:32:07.144Z,12.31
2023-03-26T03:36:20.996Z,12.23
2023-03-26T03:40:25.051Z,12.20
2023-03-26T03:44:28.335Z,12.19
2023-03-26T03:48:31.544Z,12.18
2023-03-26T03:52:36.654Z,12.15
2023-03-26T03:56:39.754Z,12.14
2023-03-26T04:00:45.397Z,12.10
2023-03-26T04:04:50.442Z,12.05
2023-03-26T04:08:54.952Z,12.03
2023-03-26T04:12:58.122Z,12.00
2023-03-26T04:17:02.549Z,12.00
2023-03-26T04:21:07.602Z,11.94
2023-03-26T04:25:15.779Z,11.93
2023-03-26T04:29:24.466Z,11.81
2023-03-26T04:33:28.907Z,11.74
2023-03-26T04:37:35.031Z,11.64
2023-03-26T04:41:39.587Z,11.63
2023-03-26T04:45:42.486Z,11.63
2023-03-26T04:49:46.487Z,11.63
2023-03-26T04:53:53.947Z,11.67
2023-03-26T04:58:04.360Z,11.68
2023-03-26T05:02:08.449Z,11.73
2023-03-26T05:06:13.669Z,11.68
2023-03-26T05:10:17.746Z,11.66
2023-03-26T05:14:22.549Z,11.59
2023-03-26T05:18:25.613Z,11.54
2023-03-26T05:22:29.083Z,11.51
2023-03-26T05:26:32.112Z,11.52
2023-03-26T05:30:36.861Z,11.44
2023-03-26T05:34:40.565Z,11.43
2023-03-26T05:38:47.552Z,11.35
2023-03-26T05:42:51.376Z,11.30
2023-03-26T05:46:56.172Z,11.26
2023-03-26T05:50:59.897Z,11.24
2023-03-26T05:55:03.210Z,11.26
2023-03-26T05:59:06.880Z,11.35
2023-03-26T06:03:13.179Z,11.47
2023-03-26T06:07:16.966Z,11.58
2023-03-26T06:11:21.643Z,11.72
2023-03-26T06:15:24.749Z,11.88
2023-03-26T06:19:29.729Z,12.07
2023-03-26T06:23:33.201Z,12.24
2023-03-26T06:27:36.645Z,12.40
2023-03-26T06:31:39.849Z,12.57
2023-03-26T06:35:46.014Z,12.73
2023-03-26T06:39:49.147Z,12.88
2023-03-26T06:43:52.278Z,13.03
2023-03-26T06:47:55.613Z,13.15
2023-03-26T06:52:00.232Z,13.25
2023-03-26T06:56:03.890Z,13.29
2023-03-26T07:00:09.638Z,13.39
2023-03-26T07:04:12.644Z,13.54
2023-03-26T07:08:19.778Z,13.67
2023-03-26T07:12:22.775Z,13.87
2023-03-26T07:16:26.715Z,14.08
2023-03-26T07:20:30.362Z,14.32
2023-03-26T07:24:36.213Z,14.61
2023-03-26T07:29:04.822Z,14.97
2023-03-26T07:33:17.289Z,15.30
2023-03-26T07:37:33.637Z,15.62
2023-03-26T07:41:47.302Z,15.98
2023-03-26T07:45:51.147Z,16.32
2023-03-26T07:49:58.538Z,16.72
2023-03-26T07:54:04.250Z,17.14
2023-03-26T07:58:21.455Z,17.53
2023-03-26T08:03:04.511Z,17.73
2023-03-26T08:07:17.601Z,17.78
2023-03-26T08:11:32.897Z,17.67
2023-03-26T08:15:44.315Z,17.48
2023-03-26T08:20:02.286Z,17.39
2023-03-26T08:24:16.770Z,17.19
2023-03-26T08:28:34.934Z,17.16
2023-03-26T08:32:40.845Z,17.16
2023-03-26T08:36:44.258Z,17.27
2023-03-26T08:41:26.081Z,17.42
2023-03-26T08:46:03.785Z,17.76
2023-03-26T08:50:35.872Z,18.20
2023-03-26T08:54:57.477Z,18.61
2023-03-26T08:59:37.259Z,18.93
2023-03-26T09:04:05.191Z,19.18
2023-03-26T09:08:54.273Z,19.33
2023-03-26T09:13:19.719Z,19.53
2023-03-26T09:17:57.893Z,19.71
2023-03-26T09:22:46.599Z,19.97
2023-03-26T09:27:03.189Z,20.36
2023-03-26T09:31:46.918Z,20.85
2023-03-26T09:35:54.926Z,21.36
2023-03-26T09:40:10.777Z,21.68
2023-03-26T09:49:06.825Z,22.22
2023-03-26T09:53:30.724Z,22.34
2023-03-26T10:01:48.594Z,22.38
2023-03-26T10:05:59.178Z,22.51
2023-03-26T10:10:15.929Z,22.71
2023-03-26T10:14:25.975Z,22.91
2023-03-26T10:18:42.987Z,22.99
2023-03-26T10:23:00.505Z,22.80
2023-03-26T10:27:27.024Z,22.50
2023-03-26T10:31:46.302Z,22.14
2023-03-26T10:36:02.685Z,21.88
2023-03-26T10:40:21.223Z,21.70
2023-03-26T10:44:43.920Z,21.67
2023-03-26T10:49:07.569Z,21.76
2023-03-26T10:53:23.384Z,21.83
2023-03-26T10:57:38.464Z,21.88
2023-03-26T11:01:48.473Z,21.90
2023-03-26T11:06:01.430Z,21.91
2023-03-26T11:10:10.689Z,21.94
2023-03-26T11:14:33.810Z,21.93
2023-03-26T11:18:44.481Z,21.92
2023-03-26T11:23:04.633Z,22.01
2023-03-26T11:27:17.467Z,22.11
2023-03-26T11:31:32.347Z,22.25
2023-03-26T11:35:42.522Z,22.33
2023-03-26T11:39:52.782Z,22.37
2023-03-26T11:44:01.058Z,22.43
2023-03-26T11:48:09.824Z,22.45
2023-03-26T11:52:16.316Z,22.38
2023-03-26T11:56:27.422Z,22.30
2023-03-26T12:00:32.190Z,22.13
2023-03-26T12:04:40.657Z,21.93
2023-03-26T12:08:45.318Z,21.59
2023-03-26T12:12:49.083Z,21.19
2023-03-26T12:17:00.282Z,20.75
2023-03-26T12:21:09.214Z,20.36
2023-03-26T12:25:18.530Z,20.08
2023-03-26T12:29:22.139Z,19.88
2023-03-26T12:33:29.191Z,19.80
2023-03-26T12:37:39.830Z,19.71
2023-03-26T12:43:51.320Z,19.55
2023-03-26T12:47:54.887Z,19.39
2023-03-26T12:51:03.103Z,19.16
2023-03-26T12:55:19.000Z,18.93
2023-03-26T12:59:42.825Z,18.71
2023-03-26T13:04:09.532Z,18.57
2023-03-26T13:14:01.174Z,18.46
2023-03-26T13:18:33.911Z,18.40
2023-03-26T13:22:47.764Z,18.23
2023-03-26T13:27:09.234Z,18.05
2023-03-26T13:31:24.287Z,17.86
2023-03-26T13:35:44.647Z,17.64
2023-03-26T13:40:13.342Z,17.52
2023-03-26T13:44:47.661Z,17.25
2023-03-26T13:48:58.232Z,17.03
2023-03-26T13:53:11.415Z,16.87
2023-03-26T13:57:21.792Z,16.72
2023-03-26T14:01:36.513Z,16.65
2023-03-26T14:05:48.401Z,16.66
2023-03-26T14:10:03.215Z,16.70
2023-03-26T14:14:10.705Z,16.68
2023-03-26T14:18:28.142Z,16.59
2023-03-26T14:22:38.366Z,16.38
2023-03-26T14:27:06.232Z,16.18
2023-03-26T14:31:23.829Z,15.89
2023-03-26T14:35:39.937Z,15.66
2023-03-26T14:40:22.171Z,15.51
2023-03-26T14:45:00.523Z,15.39
2023-03-26T14:50:01.202Z,15.35
2023-03-26T14:54:12.161Z,15.35
2023-03-26T14:58:59.936Z,15.34
2023-03-26T15:03:41.242Z,15.36
2023-03-26T15:08:06.516Z,15.41
2023-03-26T15:12:23.721Z,15.44
2023-03-26T15:17:17.184Z,15.48
2023-03-26T15:21:43.918Z,15.56
2023-03-26T15:26:27.226Z,15.60
2023-03-26T15:30:51.326Z,15.64
2023-03-26T15:35:36.758Z,15.62
2023-03-26T15:40:10.167Z,15.58
2023-03-26T15:44:50.851Z,15.52
2023-03-26T15:49:02.778Z,15.51
2023-03-26T15:53:22.134Z,15.43
2023-03-26T15:57:34.809Z,15.35
2023-03-26T16:01:51.424Z,15.28
2023-03-26T16:06:31.370Z,15.19
2023-03-26T16:10:46.814Z,15.11
2023-03-26T16:15:21.114Z,15.04
2023-03-26T16:19:50.254Z,14.99
2023-03-26T16:23:56.473Z,14.94
2023-03-26T16:28:25.282Z,14.86
2023-03-26T16:32:34.025Z,14.78
2023-03-26T16:36:41.092Z,14.68
2023-03-26T16:41:03.173Z,14.62
2023-03-26T16:45:25.099Z,14.53
2023-03-26T16:49:47.581Z,14.46
2023-03-26T16:54:20.376Z,14.41
2023-03-26T16:58:31.908Z,14.31
2023-03-26T17:02:39.503Z,14.23
2023-03-26T17:07:06.452Z,14.15
2023-03-26T17:11:24.070Z,14.06
2023-03-26T17:15:36.656Z,14.00
2023-03-26T17:19:53.002Z,13.93
2023-03-26T17:24:06.874Z,13.83
2023-03-26T17:28:31.458Z,13.72
2023-03-26T17:32:57.377Z,13.64
2023-03-26T17:37:03.599Z,13.58
2023-03-26T17:41:10.133Z,13.60
2023-03-26T17:45:21.218Z,13.60
2023-03-26T17:49:29.632Z,13.60
2023-03-26T17:53:37.543Z,13.53
2023-03-26T17:57:45.002Z,13.51
2023-03-26T18:01:50.657Z,13.49
2023-03-26T18:05:59.017Z,13.48
2023-03-26T18:10:22.622Z,13.47
2023-03-26T18:14:57.582Z,13.45
2023-03-26T18:19:05.545Z,13.41
2023-03-26T18:23:14.171Z,13.36
2023-03-26T18:27:23.220Z,13.31
2023-03-26T18:31:30.246Z,13.24
2023-03-26T18:35:45.761Z,13.19
2023-03-26T18:40:00.516Z,13.11
2023-03-26T18:44:08.073Z,13.07
2023-03-26T18:48:19.323Z,13.01
2023-03-26T18:52:25.265Z,12.97
2023-03-26T18:56:31.396Z,12.94
2023-03-26T19:00:37.985Z,12.89
2023-03-26T19:04:46.805Z,12.88
2023-03-26T19:08:53.035Z,12.86
2023-03-26T19:12:57.582Z,12.83
2023-03-26T19:17:04.723Z,12.81
2023-03-26T19:21:11.198Z,12.76
2023-03-26T19:25:24.125Z,12.71
2023-03-26T19:29:30.172Z,12.70
2023-03-26T19:33:38.694Z,12.66
2023-03-26T19:37:57.090Z,12.61
2023-03-26T19:42:02.024Z,12.58
2023-03-26T19:46:05.619Z,12.55
2023-03-26T19:50:28.133Z,12.54
2023-03-26T19:54:33.588Z,12.52
2023-03-26T19:58:39.039Z,12.49
2023-03-26T20:02:43.852Z,12.45
2023-03-26T20:06:49.555Z,12.42
2023-03-26T20:10:59.927Z,12.41
2023-03-26T20:15:05.110Z,12.38
2023-03-26T20:19:08.873Z,12.36
2023-03-26T20:23:18.007Z,12.33
2023-03-26T20:27:22.654Z,12.30
2023-03-26T20:31:29.185Z,12.26
2023-03-26T20:35:35.762Z,12.22
2023-03-26T20:39:40.841Z,12.16
2023-03-26T20:43:45.428Z,12.08
2023-03-26T20:47:51.097Z,12.05
2023-03-26T20:51:54.377Z,12.02
2023-03-26T20:55:57.569Z,12.03
2023-03-26T21:00:02.587Z,12.05
2023-03-26T21:04:08.273Z,12.12
2023-03-26T21:08:17.016Z,12.19
2023-03-26T21:12:29.845Z,12.25
2023-03-26T21:16:35.428Z,12.33
2023-03-26T21:20:39.815Z,12.37
2023-03-26T21:24:57.269Z,12.38
2023-03-26T21:29:02.920Z,12.34
2023-03-26T21:33:07.518Z,12.32
2023-03-26T21:37:12.464Z,12.27
2023-03-26T21:41:26.229Z,12.22
2023-03-26T21:45:33.170Z,12.19
2023-03-26T21:49:39.083Z,12.17
2023-03-26T21:53:57.992Z,12.13
2023-03-26T21:58:31.649Z,12.09
2023-03-26T22:02:45.776Z,12.07
2023-03-26T22:06:57.558Z,11.96
2023-03-26T22:11:01.161Z,11.86
2023-03-26T22:15:04.812Z,11.73
2023-03-26T22:19:09.129Z,11.57
2023-03-26T22:23:13.601Z,11.48
2023-03-26T22:27:17.212Z,11.35
2023-03-26T22:31:20.968Z,11.24
2023-03-26T22:35:24.481Z,11.13
2023-03-26T22:39:29.185Z,11.06
2023-03-26T22:43:35.441Z,11.00
2023-03-26T22:47:39.067Z,10.93
2023-03-26T22:51:43.277Z,10.88
2023-03-26T22:55:47.722Z,10.87
2023-03-26T22:59:51.137Z,10.83
2023-03-26T23:03:55.007Z,10.80
2023-03-26T23:07:59.463Z,10.77
2023-03-26T23:12:04.143Z,10.74
2023-03-26T23:16:08.513Z,10.67
2023-03-26T23:20:15.385Z,10.65
2023-03-26T23:24:19.437Z,10.60
2023-03-26T23:28:23.984Z,10.58
2023-03-26T23:32:28.754Z,10.52
2023-03-26T23:36:31.719Z,10.49
2023-03-26T23:40:34.868Z,10.38
2023-03-26T23:44:39.175Z,10.41
2023-03-26T23:48:43.373Z,10.36
2023-03-26T23:52:46.987Z,10.32
2023-03-26T23:56:50.427Z,10.25
